sensor_id;sensor_type;location;lat;lon;timestamp;pressure;altitude;pressure_sealevel;temperature;humidity
70343;BME280;57767;42.068;24.752;2022-11-20T00:00:36;98268.75;;;14.04;84.32
70343;BME280;57767;42.068;24.752;2022-11-20T00:01:38;98273.25;;;14.04;83.85
70343;BME280;57767;42.068;24.752;2022-11-20T00:02:40;98279.13;;;14.06;83.25
70343;BME280;57767;42.068;24.752;2022-11-20T00:03:42;98281.38;;;14.14;83.43
70343;BME280;57767;42.068;24.752;2022-11-20T00:04:44;98294.47;;;14.20;83.34
70343;BME280;57767;42.068;24.752;2022-11-20T00:05:45;98294.22;;;14.22;83.01
70343;BME280;57767;42.068;24.752;2022-11-20T00:06:47;98301.94;;;14.23;83.12
70343;BME280;57767;42.068;24.752;2022-11-20T00:07:49;98299.03;;;14.25;82.92
70343;BME280;57767;42.068;24.752;2022-11-20T00:08:52;98302.25;;;14.27;82.57
70343;BME280;57767;42.068;24.752;2022-11-20T00:09:55;98309.75;;;14.30;82.80
70343;BME280;57767;42.068;24.752;2022-11-20T00:10:56;98301.81;;;14.35;82.67
70343;BME280;57767;42.068;24.752;2022-11-20T00:11:58;98306.66;;;14.38;82.95
70343;BME280;57767;42.068;24.752;2022-11-20T00:13:00;98303.13;;;14.32;83.14
70343;BME280;57767;42.068;24.752;2022-11-20T00:14:02;98300.47;;;14.32;83.29
70343;BME280;57767;42.068;24.752;2022-11-20T00:15:04;98301.03;;;14.34;82.31
70343;BME280;57767;42.068;24.752;2022-11-20T00:16:08;98294.91;;;14.34;82.36
70343;BME280;57767;42.068;24.752;2022-11-20T00:17:10;98275.22;;;14.30;82.66
70343;BME280;57767;42.068;24.752;2022-11-20T00:18:12;98283.81;;;14.37;83.20
70343;BME280;57767;42.068;24.752;2022-11-20T00:19:14;98292.94;;;14.41;82.87
70343;BME280;57767;42.068;24.752;2022-11-20T00:20:15;98303.03;;;14.44;82.59
70343;BME280;57767;42.068;24.752;2022-11-20T00:21:25;98303.03;;;14.44;82.16
70343;BME280;57767;42.068;24.752;2022-11-20T00:22:28;98306.25;;;14.46;82.14
70343;BME280;57767;42.068;24.752;2022-11-20T00:23:29;98299.09;;;14.47;81.98
70343;BME280;57767;42.068;24.752;2022-11-20T00:24:31;98291.38;;;14.45;82.10
70343;BME280;57767;42.068;24.752;2022-11-20T00:25:35;98296.16;;;14.43;82.73
70343;BME280;57767;42.068;24.752;2022-11-20T00:26:37;98298.28;;;14.46;82.38
70343;BME280;57767;42.068;24.752;2022-11-20T00:27:39;98299.34;;;14.45;82.55
70343;BME280;57767;42.068;24.752;2022-11-20T00:28:42;98295.06;;;14.44;82.56
70343;BME280;57767;42.068;24.752;2022-11-20T00:29:44;98290.03;;;14.43;83.04
70343;BME280;57767;42.068;24.752;2022-11-20T00:30:46;98293.50;;;14.43;83.21
70343;BME280;57767;42.068;24.752;2022-11-20T00:31:48;98300.91;;;14.41;82.93
70343;BME280;57767;42.068;24.752;2022-11-20T00:32:49;98290.31;;;14.46;82.53
70343;BME280;57767;42.068;24.752;2022-11-20T00:33:52;98295.72;;;14.51;82.29
70343;BME280;57767;42.068;24.752;2022-11-20T00:34:53;98289.59;;;14.51;82.28
70343;BME280;57767;42.068;24.752;2022-11-20T00:36:05;98286.84;;;14.46;82.36
70343;BME280;57767;42.068;24.752;2022-11-20T00:37:07;98284.75;;;14.48;82.68
70343;BME280;57767;42.068;24.752;2022-11-20T00:38:09;98290.06;;;14.48;82.60
70343;BME280;57767;42.068;24.752;2022-11-20T00:39:11;98284.03;;;14.52;82.68
70343;BME280;57767;42.068;24.752;2022-11-20T00:40:12;98285.94;;;14.57;81.90
70343;BME280;57767;42.068;24.752;2022-11-20T00:41:15;98281.97;;;14.59;81.84
70343;BME280;57767;42.068;24.752;2022-11-20T00:42:17;98262.16;;;14.45;82.45
70343;BME280;57767;42.068;24.752;2022-11-20T00:43:19;98270.75;;;14.52;82.47
70343;BME280;57767;42.068;24.752;2022-11-20T00:44:21;98283.28;;;14.57;81.72
70343;BME280;57767;42.068;24.752;2022-11-20T00:45:22;98292.59;;;14.59;81.46
70343;BME280;57767;42.068;24.752;2022-11-20T00:46:26;98300.78;;;14.53;81.91
70343;BME280;57767;42.068;24.752;2022-11-20T00:47:28;98297.44;;;14.41;82.30
70343;BME280;57767;42.068;24.752;2022-11-20T00:48:30;98311.00;;;14.44;82.26
70343;BME280;57767;42.068;24.752;2022-11-20T00:49:32;98310.53;;;14.47;81.87
70343;BME280;57767;42.068;24.752;2022-11-20T00:50:33;98290.31;;;14.46;81.56
70343;BME280;57767;42.068;24.752;2022-11-20T00:51:35;98297.88;;;14.54;81.32
70343;BME280;57767;42.068;24.752;2022-11-20T00:52:37;98294.66;;;14.52;81.67
70343;BME280;57767;42.068;24.752;2022-11-20T00:53:38;98302.63;;;14.52;81.17
70343;BME280;57767;42.068;24.752;2022-11-20T00:54:40;98301.09;;;14.56;80.45
70343;BME280;57767;42.068;24.752;2022-11-20T00:55:42;98296.31;;;14.58;80.33
70343;BME280;57767;42.068;24.752;2022-11-20T00:56:43;98293.63;;;14.53;80.16
70343;BME280;57767;42.068;24.752;2022-11-20T00:57:45;98304.28;;;14.58;80.35
70343;BME280;57767;42.068;24.752;2022-11-20T00:58:48;98301.09;;;14.56;80.63
70343;BME280;57767;42.068;24.752;2022-11-20T00:59:50;98308.66;;;14.48;80.79
70343;BME280;57767;42.068;24.752;2022-11-20T01:00:52;98301.69;;;14.42;80.92
70343;BME280;57767;42.068;24.752;2022-11-20T01:01:53;98297.19;;;14.42;81.21
70343;BME280;57767;42.068;24.752;2022-11-20T01:02:55;98300.47;;;14.49;80.35
70343;BME280;57767;42.068;24.752;2022-11-20T01:03:59;98297.88;;;14.54;80.61
70343;BME280;57767;42.068;24.752;2022-11-20T01:05:01;98304.53;;;14.57;80.34
70343;BME280;57767;42.068;24.752;2022-11-20T01:06:04;98288.22;;;14.48;79.84
70343;BME280;57767;42.068;24.752;2022-11-20T01:07:06;98301.13;;;14.61;79.92
70343;BME280;57767;42.068;24.752;2022-11-20T01:08:08;98307.81;;;14.64;79.39
70343;BME280;57767;42.068;24.752;2022-11-20T01:09:13;98309.44;;;14.65;79.57
70343;BME280;57767;42.068;24.752;2022-11-20T01:10:15;98310.00;;;14.67;79.52
70343;BME280;57767;42.068;24.752;2022-11-20T01:11:20;98297.25;;;14.69;79.54
70343;BME280;57767;42.068;24.752;2022-11-20T01:12:21;98291.81;;;14.59;80.20
70343;BME280;57767;42.068;24.752;2022-11-20T01:13:23;98293.16;;;14.61;81.08
70343;BME280;57767;42.068;24.752;2022-11-20T01:14:40;98299.84;;;14.64;80.67
70343;BME280;57767;42.068;24.752;2022-11-20T01:15:42;98299.03;;;14.63;80.27
70343;BME280;57767;42.068;24.752;2022-11-20T01:16:49;98312.31;;;14.63;80.29
70343;BME280;57767;42.068;24.752;2022-11-20T01:17:51;98312.31;;;14.63;80.15
70343;BME280;57767;42.068;24.752;2022-11-20T01:18:56;98308.06;;;14.62;80.46
70343;BME280;57767;42.068;24.752;2022-11-20T01:19:58;98312.31;;;14.63;80.39
70343;BME280;57767;42.068;24.752;2022-11-20T01:21:05;98293.91;;;14.57;80.13
70343;BME280;57767;42.068;24.752;2022-11-20T01:22:07;98262.91;;;14.41;80.27
70343;BME280;57767;42.068;24.752;2022-11-20T01:23:09;98287.28;;;14.59;80.54
70343;BME280;57767;42.068;24.752;2022-11-20T01:24:13;98288.91;;;14.60;80.27
70343;BME280;57767;42.068;24.752;2022-11-20T01:25:15;98294.22;;;14.60;80.31
70343;BME280;57767;42.068;24.752;2022-11-20T01:26:23;98287.00;;;14.56;79.98
70343;BME280;57767;42.068;24.752;2022-11-20T01:27:25;98289.94;;;14.59;79.85
70343;BME280;57767;42.068;24.752;2022-11-20T01:28:26;98285.69;;;14.58;79.72
70343;BME280;57767;42.068;24.752;2022-11-20T01:29:29;98282.53;;;14.61;79.42
70343;BME280;57767;42.068;24.752;2022-11-20T01:30:31;98276.63;;;14.54;79.73
70343;BME280;57767;42.068;24.752;2022-11-20T01:31:35;98276.63;;;14.54;79.30
70343;BME280;57767;42.068;24.752;2022-11-20T01:32:37;98274.78;;;14.55;79.42
70343;BME280;57767;42.068;24.752;2022-11-20T01:33:39;98279.28;;;14.54;79.78
70343;BME280;57767;42.068;24.752;2022-11-20T01:34:42;98271.06;;;14.56;79.56
70343;BME280;57767;42.068;24.752;2022-11-20T01:35:43;98270.00;;;14.57;79.18
70343;BME280;57767;42.068;24.752;2022-11-20T01:36:45;98266.56;;;14.56;79.66
70343;BME280;57767;42.068;24.752;2022-11-20T01:37:47;98260.59;;;14.49;79.79
70343;BME280;57767;42.068;24.752;2022-11-20T01:39:00;98265.31;;;14.42;79.66
70343;BME280;57767;42.068;24.752;2022-11-20T01:40:03;98264.66;;;14.35;80.41
70343;BME280;57767;42.068;24.752;2022-11-20T01:41:05;98263.22;;;14.27;80.81
70343;BME280;57767;42.068;24.752;2022-11-20T01:42:07;98262.66;;;14.25;80.48
70343;BME280;57767;42.068;24.752;2022-11-20T01:43:38;98262.91;;;14.24;80.16
70343;BME280;57767;42.068;24.752;2022-11-20T01:44:50;98256.78;;;14.23;80.03
70343;BME280;57767;42.068;24.752;2022-11-20T01:46:15;98244.88;;;14.26;79.87
70343;BME280;57767;42.068;24.752;2022-11-20T01:47:44;98249.75;;;14.34;79.27
70343;BME280;57767;42.068;24.752;2022-11-20T01:48:55;98248.72;;;14.35;78.95
70343;BME280;57767;42.068;24.752;2022-11-20T01:50:04;98251.63;;;14.33;78.61
70343;BME280;57767;42.068;24.752;2022-11-20T01:51:15;98252.78;;;14.21;78.89
70343;BME280;57767;42.068;24.752;2022-11-20T01:52:34;98245.91;;;14.03;79.56
70343;BME280;57767;42.068;24.752;2022-11-20T01:53:38;98261.91;;;14.08;79.68
70343;BME280;57767;42.068;24.752;2022-11-20T01:54:48;98250.31;;;14.14;79.58
70343;BME280;57767;42.068;24.752;2022-11-20T01:55:55;98257.16;;;14.10;80.03
70343;BME280;57767;42.068;24.752;2022-11-20T01:56:58;98252.97;;;14.14;79.93
70343;BME280;57767;42.068;24.752;2022-11-20T01:58:02;98255.66;;;14.19;79.64
70343;BME280;57767;42.068;24.752;2022-11-20T01:59:05;98242.66;;;14.18;79.68
70343;BME280;57767;42.068;24.752;2022-11-20T02:00:12;98240.41;;;14.10;79.93
70343;BME280;57767;42.068;24.752;2022-11-20T02:01:15;98239.13;;;14.12;79.45
70343;BME280;57767;42.068;24.752;2022-11-20T02:02:16;98233.56;;;14.14;79.45
70343;BME280;57767;42.068;24.752;2022-11-20T02:03:19;98224.13;;;14.23;78.45
70343;BME280;57767;42.068;24.752;2022-11-20T02:04:22;98216.81;;;14.30;77.55
70343;BME280;57767;42.068;24.752;2022-11-20T02:05:32;98225.38;;;14.37;76.75
70343;BME280;57767;42.068;24.752;2022-11-20T02:06:46;98233.59;;;14.35;76.45
70343;BME280;57767;42.068;24.752;2022-11-20T02:07:50;98233.91;;;14.39;76.83
70343;BME280;57767;42.068;24.752;2022-11-20T02:08:52;98225.72;;;14.41;76.69
70343;BME280;57767;42.068;24.752;2022-11-20T02:09:54;98235.84;;;14.44;76.49
70343;BME280;57767;42.068;24.752;2022-11-20T02:10:59;98231.03;;;14.41;76.24
70343;BME280;57767;42.068;24.752;2022-11-20T02:12:01;98234.16;;;14.38;76.78
70343;BME280;57767;42.068;24.752;2022-11-20T02:13:04;98233.09;;;14.39;76.21
70343;BME280;57767;42.068;24.752;2022-11-20T02:14:25;98237.94;;;14.42;75.59
70343;BME280;57767;42.068;24.752;2022-11-20T02:15:27;98250.31;;;14.36;75.26
70343;BME280;57767;42.068;24.752;2022-11-20T02:16:34;98254.78;;;14.30;76.09
70343;BME280;57767;42.068;24.752;2022-11-20T02:17:37;98249.19;;;14.32;75.85
70343;BME280;57767;42.068;24.752;2022-11-20T02:18:40;98242.84;;;14.33;75.64
70343;BME280;57767;42.068;24.752;2022-11-20T02:19:42;98245.56;;;14.38;76.02
70343;BME280;57767;42.068;24.752;2022-11-20T02:20:46;98232.78;;;14.35;76.07
70343;BME280;57767;42.068;24.752;2022-11-20T02:21:55;98231.06;;;14.24;76.35
70343;BME280;57767;42.068;24.752;2022-11-20T02:23:03;98232.84;;;14.18;76.54
70343;BME280;57767;42.068;24.752;2022-11-20T02:25:11;98227.28;;;14.20;76.85
70343;BME280;57767;42.068;24.752;2022-11-20T02:26:14;98235.56;;;14.23;76.69
70343;BME280;57767;42.068;24.752;2022-11-20T02:27:17;98229.81;;;14.10;77.03
70343;BME280;57767;42.068;24.752;2022-11-20T02:28:19;98226.59;;;14.08;77.01
70343;BME280;57767;42.068;24.752;2022-11-20T02:30:53;98227.34;;;14.25;75.64
70343;BME280;57767;42.068;24.752;2022-11-20T02:31:56;98218.56;;;14.24;75.46
70343;BME280;57767;42.068;24.752;2022-11-20T02:32:59;98227.16;;;14.31;75.70
70343;BME280;57767;42.068;24.752;2022-11-20T02:34:01;98223.75;;;14.36;75.32
70343;BME280;57767;42.068;24.752;2022-11-20T02:36:28;98215.03;;;14.19;75.47
70343;BME280;57767;42.068;24.752;2022-11-20T02:37:34;98219.59;;;14.18;75.97
70343;BME280;57767;42.068;24.752;2022-11-20T02:38:38;98221.78;;;14.26;76.01
70343;BME280;57767;42.068;24.752;2022-11-20T02:39:40;98213.09;;;14.31;75.61
70343;BME280;57767;42.068;24.752;2022-11-20T02:40:43;98212.81;;;14.32;75.23
70343;BME280;57767;42.068;24.752;2022-11-20T02:41:44;98218.56;;;14.41;75.20
70343;BME280;57767;42.068;24.752;2022-11-20T02:42:46;98215.91;;;14.41;74.68
70343;BME280;57767;42.068;24.752;2022-11-20T02:43:48;98219.66;;;14.45;74.67
70343;BME280;57767;42.068;24.752;2022-11-20T02:44:49;98210.59;;;14.41;74.90
70343;BME280;57767;42.068;24.752;2022-11-20T02:45:51;98207.94;;;14.41;75.23
70343;BME280;57767;42.068;24.752;2022-11-20T02:46:53;98212.72;;;14.44;74.79
70343;BME280;57767;42.068;24.752;2022-11-20T02:47:58;98207.47;;;14.49;73.58
70343;BME280;57767;42.068;24.752;2022-11-20T02:49:03;98205.13;;;14.53;73.60
70343;BME280;57767;42.068;24.752;2022-11-20T02:50:06;98204.81;;;14.49;73.15
70343;BME280;57767;42.068;24.752;2022-11-20T02:51:07;98198.53;;;14.55;71.64
70343;BME280;57767;42.068;24.752;2022-11-20T02:52:09;98195.97;;;14.65;71.92
70343;BME280;57767;42.068;24.752;2022-11-20T02:53:11;98192.31;;;14.72;71.67
70343;BME280;57767;42.068;24.752;2022-11-20T02:54:12;98196.06;;;14.76;71.03
70343;BME280;57767;42.068;24.752;2022-11-20T02:55:14;98188.69;;;14.83;71.34
70343;BME280;57767;42.068;24.752;2022-11-20T02:56:16;98190.94;;;14.96;70.72
70343;BME280;57767;42.068;24.752;2022-11-20T02:57:18;98204.84;;;15.03;71.19
70343;BME280;57767;42.068;24.752;2022-11-20T02:58:20;98206.41;;;14.99;71.33
70343;BME280;57767;42.068;24.752;2022-11-20T02:59:21;98208.50;;;14.97;71.33
70343;BME280;57767;42.068;24.752;2022-11-20T03:00:24;98214.88;;;14.96;71.84
70343;BME280;57767;42.068;24.752;2022-11-20T03:01:26;98210.59;;;14.95;71.40
70343;BME280;57767;42.068;24.752;2022-11-20T03:02:31;98205.00;;;14.91;69.92
70343;BME280;57767;42.068;24.752;2022-11-20T03:03:33;98197.38;;;15.00;69.64
70343;BME280;57767;42.068;24.752;2022-11-20T03:04:34;98203.81;;;15.09;69.57
70343;BME280;57767;42.068;24.752;2022-11-20T03:05:36;98194.84;;;15.15;70.04
70343;BME280;57767;42.068;24.752;2022-11-20T03:06:38;98197.28;;;15.22;70.13
70343;BME280;57767;42.068;24.752;2022-11-20T03:07:39;98177.28;;;15.14;69.54
70343;BME280;57767;42.068;24.752;2022-11-20T03:08:42;98181.13;;;15.28;69.36
70343;BME280;57767;42.068;24.752;2022-11-20T03:09:44;98177.91;;;15.26;69.09
70343;BME280;57767;42.068;24.752;2022-11-20T03:10:45;98195.56;;;15.37;68.44
70343;BME280;57767;42.068;24.752;2022-11-20T03:11:47;98202.53;;;15.44;68.50
70343;BME280;57767;42.068;24.752;2022-11-20T03:12:53;98206.25;;;15.43;68.27
70343;BME280;57767;42.068;24.752;2022-11-20T03:13:56;98206.00;;;15.44;68.04
70343;BME280;57767;42.068;24.752;2022-11-20T03:14:58;98203.63;;;15.48;68.45
70343;BME280;57767;42.068;24.752;2022-11-20T03:16:14;98202.59;;;15.54;67.97
70343;BME280;57767;42.068;24.752;2022-11-20T03:17:17;98192.75;;;15.54;68.11
70343;BME280;57767;42.068;24.752;2022-11-20T03:18:18;98195.47;;;15.59;68.12
70343;BME280;57767;42.068;24.752;2022-11-20T03:19:20;98197.34;;;15.59;68.08
70343;BME280;57767;42.068;24.752;2022-11-20T03:20:23;98192.81;;;15.59;68.20
70343;BME280;57767;42.068;24.752;2022-11-20T03:21:25;98197.88;;;15.61;68.67
70343;BME280;57767;42.068;24.752;2022-11-20T03:22:29;98192.97;;;15.48;69.08
70343;BME280;57767;42.068;24.752;2022-11-20T03:23:32;98196.97;;;15.50;68.51
70343;BME280;57767;42.068;24.752;2022-11-20T03:24:33;98199.13;;;15.53;68.02
70343;BME280;57767;42.068;24.752;2022-11-20T03:25:35;98197.28;;;15.54;68.09
70343;BME280;57767;42.068;24.752;2022-11-20T03:26:38;98189.56;;;15.52;68.62
70343;BME280;57767;42.068;24.752;2022-11-20T03:27:40;98190.78;;;15.39;69.26
70343;BME280;57767;42.068;24.752;2022-11-20T03:28:46;98189.69;;;15.35;69.74
70343;BME280;57767;42.068;24.752;2022-11-20T03:29:48;98176.38;;;15.30;69.73
70343;BME280;57767;42.068;24.752;2022-11-20T03:30:50;98181.34;;;15.22;69.90
70343;BME280;57767;42.068;24.752;2022-11-20T03:31:52;98178.41;;;15.18;69.60
70343;BME280;57767;42.068;24.752;2022-11-20T03:32:54;98191.16;;;15.16;69.17
70343;BME280;57767;42.068;24.752;2022-11-20T03:33:57;98190.03;;;15.12;69.81
70343;BME280;57767;42.068;24.752;2022-11-20T03:34:59;98182.53;;;15.04;70.32
70343;BME280;57767;42.068;24.752;2022-11-20T03:36:05;98183.84;;;15.01;70.34
70343;BME280;57767;42.068;24.752;2022-11-20T03:37:08;98182.47;;;14.99;70.55
70343;BME280;57767;42.068;24.752;2022-11-20T03:38:10;98190.41;;;14.94;71.42
70343;BME280;57767;42.068;24.752;2022-11-20T03:39:11;98194.66;;;14.95;71.88
70343;BME280;57767;42.068;24.752;2022-11-20T03:40:13;98202.91;;;14.93;72.00
70343;BME280;57767;42.068;24.752;2022-11-20T03:41:19;98190.56;;;14.82;72.20
70343;BME280;57767;42.068;24.752;2022-11-20T03:42:22;98182.22;;;14.74;72.92
70343;BME280;57767;42.068;24.752;2022-11-20T03:43:47;98177.41;;;14.70;73.74
70343;BME280;57767;42.068;24.752;2022-11-20T03:44:48;98176.63;;;14.70;73.89
70343;BME280;57767;42.068;24.752;2022-11-20T03:45:50;98187.25;;;14.70;73.64
70343;BME280;57767;42.068;24.752;2022-11-20T03:46:52;98188.03;;;14.70;73.87
70343;BME280;57767;42.068;24.752;2022-11-20T03:47:53;98196.56;;;14.73;73.59
70343;BME280;57767;42.068;24.752;2022-11-20T03:48:56;98196.06;;;14.76;73.23
70343;BME280;57767;42.068;24.752;2022-11-20T03:49:57;98187.06;;;14.77;73.54
70343;BME280;57767;42.068;24.752;2022-11-20T03:51:15;98184.94;;;14.79;73.53
70343;BME280;57767;42.068;24.752;2022-11-20T03:52:17;98187.06;;;14.77;73.63
70343;BME280;57767;42.068;24.752;2022-11-20T03:53:19;98187.63;;;14.79;73.40
70343;BME280;57767;42.068;24.752;2022-11-20T03:54:21;98187.63;;;14.79;73.51
70343;BME280;57767;42.068;24.752;2022-11-20T03:55:23;98181.25;;;14.80;73.74
70343;BME280;57767;42.068;24.752;2022-11-20T03:56:27;98197.75;;;14.60;74.36
70343;BME280;57767;42.068;24.752;2022-11-20T03:57:29;98204.91;;;14.54;75.81
70343;BME280;57767;42.068;24.752;2022-11-20T03:58:32;98211.38;;;14.42;75.79
70343;BME280;57767;42.068;24.752;2022-11-20T03:59:34;98197.44;;;14.34;75.94
70343;BME280;57767;42.068;24.752;2022-11-20T04:00:36;98226.56;;;14.46;75.77
70343;BME280;57767;42.068;24.752;2022-11-20T04:01:37;98221.81;;;14.48;76.17
70343;BME280;57767;42.068;24.752;2022-11-20T04:02:39;98225.84;;;14.51;76.27
70343;BME280;57767;42.068;24.752;2022-11-20T04:03:42;98227.94;;;14.49;76.29
70343;BME280;57767;42.068;24.752;2022-11-20T04:04:44;98225.47;;;14.42;75.91
70343;BME280;57767;42.068;24.752;2022-11-20T04:05:46;98216.34;;;14.38;76.04
70343;BME280;57767;42.068;24.752;2022-11-20T04:06:48;98211.22;;;14.31;76.08
70343;BME280;57767;42.068;24.752;2022-11-20T04:07:49;98206.91;;;14.25;76.39
70343;BME280;57767;42.068;24.752;2022-11-20T04:08:54;98217.53;;;14.25;76.33
70343;BME280;57767;42.068;24.752;2022-11-20T04:09:56;98211.91;;;14.22;76.94
70343;BME280;57767;42.068;24.752;2022-11-20T04:11:14;98226.75;;;14.18;76.82
70343;BME280;57767;42.068;24.752;2022-11-20T04:12:16;98222.97;;;14.14;77.33
70343;BME280;57767;42.068;24.752;2022-11-20T04:13:18;98203.56;;;13.91;77.35
70343;BME280;57767;42.068;24.752;2022-11-20T04:14:20;98218.25;;;13.99;78.10
70343;BME280;57767;42.068;24.752;2022-11-20T04:15:21;98219.63;;;13.85;77.63
70343;BME280;57767;42.068;24.752;2022-11-20T04:16:24;98223.91;;;13.69;78.56
70343;BME280;57767;42.068;24.752;2022-11-20T04:17:26;98224.56;;;13.76;78.83
70343;BME280;57767;42.068;24.752;2022-11-20T04:18:28;98224.09;;;13.79;78.75
70343;BME280;57767;42.068;24.752;2022-11-20T04:19:30;98216.19;;;13.84;78.97
70343;BME280;57767;42.068;24.752;2022-11-20T04:20:31;98196.91;;;13.72;78.54
70343;BME280;57767;42.068;24.752;2022-11-20T04:21:33;98214.44;;;13.73;78.58
70343;BME280;57767;42.068;24.752;2022-11-20T04:22:35;98208.09;;;13.74;78.64
70343;BME280;57767;42.068;24.752;2022-11-20T04:23:37;98216.84;;;13.75;78.74
70343;BME280;57767;42.068;24.752;2022-11-20T04:24:38;98200.69;;;13.76;78.84
70343;BME280;57767;42.068;24.752;2022-11-20T04:25:40;98189.28;;;13.76;78.76
70343;BME280;57767;42.068;24.752;2022-11-20T04:26:42;98195.63;;;13.75;79.19
70343;BME280;57767;42.068;24.752;2022-11-20T04:27:43;98201.81;;;13.80;79.55
70343;BME280;57767;42.068;24.752;2022-11-20T04:28:45;98196.09;;;13.72;79.94
70343;BME280;57767;42.068;24.752;2022-11-20T04:29:47;98201.41;;;13.72;80.70
70343;BME280;57767;42.068;24.752;2022-11-20T04:30:48;98203.25;;;13.71;80.17
70343;BME280;57767;42.068;24.752;2022-11-20T04:31:50;98209.03;;;13.68;79.84
70343;BME280;57767;42.068;24.752;2022-11-20T04:32:52;98224.44;;;13.66;79.57
70343;BME280;57767;42.068;24.752;2022-11-20T04:33:54;98213.25;;;13.64;79.64
70343;BME280;57767;42.068;24.752;2022-11-20T04:34:55;98214.91;;;13.70;79.32
70343;BME280;57767;42.068;24.752;2022-11-20T04:36:12;98213.63;;;13.73;79.48
70343;BME280;57767;42.068;24.752;2022-11-20T04:37:14;98211.22;;;13.71;79.15
70343;BME280;57767;42.068;24.752;2022-11-20T04:38:15;98191.47;;;13.62;79.37
70343;BME280;57767;42.068;24.752;2022-11-20T04:39:17;98212.81;;;13.72;79.14
70343;BME280;57767;42.068;24.752;2022-11-20T04:40:19;98222.97;;;13.75;79.35
70343;BME280;57767;42.068;24.752;2022-11-20T04:41:22;98217.16;;;13.78;79.42
70343;BME280;57767;42.068;24.752;2022-11-20T04:42:24;98205.66;;;13.73;79.25
70343;BME280;57767;42.068;24.752;2022-11-20T04:43:32;98207.69;;;13.66;79.68
70343;BME280;57767;42.068;24.752;2022-11-20T04:44:34;98229.63;;;13.78;79.88
70343;BME280;57767;42.068;24.752;2022-11-20T04:45:35;98230.72;;;13.82;79.81
70343;BME280;57767;42.068;24.752;2022-11-20T04:46:40;98231.97;;;13.74;79.94
70343;BME280;57767;42.068;24.752;2022-11-20T04:47:42;98230.53;;;13.67;80.01
70343;BME280;57767;42.068;24.752;2022-11-20T04:48:43;98236.66;;;13.67;79.87
70343;BME280;57767;42.068;24.752;2022-11-20T04:49:45;98236.66;;;13.67;80.05
70343;BME280;57767;42.068;24.752;2022-11-20T04:50:47;98225.53;;;13.70;79.44
70343;BME280;57767;42.068;24.752;2022-11-20T04:51:49;98233.34;;;13.77;79.07
70343;BME280;57767;42.068;24.752;2022-11-20T04:52:50;98221.34;;;13.74;79.18
70343;BME280;57767;42.068;24.752;2022-11-20T04:53:52;98217.16;;;13.78;78.95
70343;BME280;57767;42.068;24.752;2022-11-20T04:54:54;98217.75;;;13.80;78.26
70343;BME280;57767;42.068;24.752;2022-11-20T04:56:00;98222.28;;;13.85;77.89
70343;BME280;57767;42.068;24.752;2022-11-20T04:57:02;98228.41;;;13.85;78.22
70343;BME280;57767;42.068;24.752;2022-11-20T04:58:04;98227.78;;;13.78;77.97
70343;BME280;57767;42.068;24.752;2022-11-20T04:59:06;98236.22;;;13.75;78.75
70343;BME280;57767;42.068;24.752;2022-11-20T05:00:08;98230.03;;;13.70;79.60
70343;BME280;57767;42.068;24.752;2022-11-20T05:01:16;98231.47;;;13.77;79.27
70343;BME280;57767;42.068;24.752;2022-11-20T05:02:18;98229.41;;;13.79;79.24
70343;BME280;57767;42.068;24.752;2022-11-20T05:03:19;98224.47;;;13.71;79.66
70343;BME280;57767;42.068;24.752;2022-11-20T05:04:21;98235.97;;;13.77;79.19
70343;BME280;57767;42.068;24.752;2022-11-20T05:05:23;98233.09;;;13.78;78.63
70343;BME280;57767;42.068;24.752;2022-11-20T05:06:25;98242.75;;;13.68;79.20
70343;BME280;57767;42.068;24.752;2022-11-20T05:07:26;98240.72;;;13.58;79.81
70343;BME280;57767;42.068;24.752;2022-11-20T05:08:29;98233.75;;;13.52;80.08
70343;BME280;57767;42.068;24.752;2022-11-20T05:09:31;98221.69;;;13.44;80.95
70343;BME280;57767;42.068;24.752;2022-11-20T05:10:33;98224.66;;;13.48;81.10
70343;BME280;57767;42.068;24.752;2022-11-20T05:11:34;98232.78;;;13.58;80.84
70343;BME280;57767;42.068;24.752;2022-11-20T05:12:36;98236.56;;;13.62;80.46
70343;BME280;57767;42.068;24.752;2022-11-20T05:13:38;98237.69;;;13.66;80.01
70343;BME280;57767;42.068;24.752;2022-11-20T05:14:40;98243.06;;;13.71;79.19
70343;BME280;57767;42.068;24.752;2022-11-20T05:15:42;98231.63;;;13.71;79.18
70343;BME280;57767;42.068;24.752;2022-11-20T05:16:43;98243.38;;;13.75;78.64
70343;BME280;57767;42.068;24.752;2022-11-20T05:17:49;98240.41;;;13.71;78.96
70343;BME280;57767;42.068;24.752;2022-11-20T05:18:52;98220.88;;;13.60;78.77
70343;BME280;57767;42.068;24.752;2022-11-20T05:19:55;98249.59;;;13.63;78.97
70343;BME280;57767;42.068;24.752;2022-11-20T05:20:57;98245.31;;;13.62;79.19
70343;BME280;57767;42.068;24.752;2022-11-20T05:21:59;98239.53;;;13.66;79.06
70343;BME280;57767;42.068;24.752;2022-11-20T05:23:01;98237.44;;;13.68;78.83
70343;BME280;57767;42.068;24.752;2022-11-20T05:24:02;98225.75;;;13.69;78.94
70343;BME280;57767;42.068;24.752;2022-11-20T05:25:05;98229.56;;;13.73;78.48
70343;BME280;57767;42.068;24.752;2022-11-20T05:26:08;98223.44;;;13.72;78.90
70343;BME280;57767;42.068;24.752;2022-11-20T05:27:13;98222.81;;;13.65;78.67
70343;BME280;57767;42.068;24.752;2022-11-20T05:28:15;98223.78;;;13.59;78.70
70343;BME280;57767;42.068;24.752;2022-11-20T05:29:16;98230.69;;;13.60;79.65
70343;BME280;57767;42.068;24.752;2022-11-20T05:30:18;98225.72;;;13.63;80.17
70343;BME280;57767;42.068;24.752;2022-11-20T05:31:22;98231.16;;;13.57;80.57
70343;BME280;57767;42.068;24.752;2022-11-20T05:32:28;98228.59;;;13.45;81.51
70343;BME280;57767;42.068;24.752;2022-11-20T05:33:30;98234.69;;;13.46;81.95
70343;BME280;57767;42.068;24.752;2022-11-20T05:34:31;98234.22;;;13.49;82.49
70343;BME280;57767;42.068;24.752;2022-11-20T05:35:33;98231.66;;;13.54;82.34